Aérodrome :
LOGIN :

S'inscrire | Disclaimer

   EN    FR    IT 

 










Légende :    VFR   VFR Marginal   IFR   IFR Intensif   IFR Très Intensif
Visi : 
Plafond : 
>= 8 km
>= 3000ft
5 à 8 km
1000 à 3000 ft
1500m à 5 km
500 à 1000 ft
800 à 1500m
200 à 500 ft
< 800m
< 200 ft
Symboles :   Orages  Brouillard  Fortes neiges  Fortes précipitations  Vent > 20 kt
SIGMETs :   Divers  Orages  Givrage  Turbulence  Onde Orograph.  Cendres Volcan.






- Altitude de l'aérodrome : 194 ft
- Code IATA : IEG


EPZG - Zielona Gora Babimost

DERNIER METAR :
  • 020500Z 25007KT 220V290 9999 FEW009 18/18 Q1009

METARs EXPIRÉS :
  • 020430Z 25008KT 9999 SCT008 18/17 Q1009
  • 020400Z 23008KT 9999 SCT008 17/17 Q1009
  • 020330Z 24008KT 210V270 9999 FEW007 17/17 Q1008
  • 020300Z 26008KT CAVOK 18/18 Q1008

TAF TAF EPZG
Valide du 02 à 03h jusqu'au 02 à 12h UTC


020230Z 0203/0212 26006KT 9999 SCT040
TEMPO 0203/0212 3000 SHRA BKN030CB



MET'MAP, la Météo Aéronautique d'un coup d'oeil ! - Copyright ORBIFLY Décembre 2007 - Disclaimer

ORBIFLY MET'MAP TEAM :

Programmation & Développement : Alexandra Zaïnal
Sur une idée originale de : Baudouin d'Aumeries
Assistance à la programmation : Marc-Olivier Méhu
Soutien technique & logistique : Manuel Goepfert

Contact : metmap@orbifly.com




SOURCES & CREDITS :

   NOAA